sensor_id;sensor_type;location;lat;lon;timestamp;temperature;humidity
25732;DHT22;13585;50.864;4.406;2022-12-04T00:00:31;16.30;58.10
25732;DHT22;13585;50.864;4.406;2022-12-04T00:02:57;16.30;58.10
25732;DHT22;13585;50.864;4.406;2022-12-04T00:05:22;16.30;58.10
25732;DHT22;13585;50.864;4.406;2022-12-04T00:07:48;16.30;58.10
25732;DHT22;13585;50.864;4.406;2022-12-04T00:10:14;16.30;58.10
25732;DHT22;13585;50.864;4.406;2022-12-04T00:12:39;16.30;58.20
25732;DHT22;13585;50.864;4.406;2022-12-04T00:15:05;16.30;58.10
25732;DHT22;13585;50.864;4.406;2022-12-04T00:17:31;16.30;58.20
25732;DHT22;13585;50.864;4.406;2022-12-04T00:19:57;16.30;58.10
25732;DHT22;13585;50.864;4.406;2022-12-04T00:22:22;16.30;58.10
25732;DHT22;13585;50.864;4.406;2022-12-04T00:24:48;16.20;58.00
25732;DHT22;13585;50.864;4.406;2022-12-04T00:27:14;16.30;58.10
25732;DHT22;13585;50.864;4.406;2022-12-04T00:29:39;16.30;58.10
25732;DHT22;13585;50.864;4.406;2022-12-04T00:32:05;16.30;58.10
25732;DHT22;13585;50.864;4.406;2022-12-04T00:34:30;16.30;58.00
25732;DHT22;13585;50.864;4.406;2022-12-04T00:36:56;16.30;58.00
25732;DHT22;13585;50.864;4.406;2022-12-04T00:39:24;16.30;58.00
25732;DHT22;13585;50.864;4.406;2022-12-04T00:41:50;16.30;58.00
25732;DHT22;13585;50.864;4.406;2022-12-04T00:44:15;16.30;58.00
25732;DHT22;13585;50.864;4.406;2022-12-04T00:46:41;16.30;58.00
25732;DHT22;13585;50.864;4.406;2022-12-04T00:49:07;16.20;57.90
25732;DHT22;13585;50.864;4.406;2022-12-04T00:51:32;16.20;57.90
25732;DHT22;13585;50.864;4.406;2022-12-04T00:53:58;16.30;58.00
25732;DHT22;13585;50.864;4.406;2022-12-04T00:56:26;16.20;57.90
25732;DHT22;13585;50.864;4.406;2022-12-04T00:58:57;16.20;57.90
25732;DHT22;13585;50.864;4.406;2022-12-04T01:01:23;16.20;57.90
25732;DHT22;13585;50.864;4.406;2022-12-04T01:03:49;16.20;57.90
25732;DHT22;13585;50.864;4.406;2022-12-04T01:06:23;16.30;57.90
25732;DHT22;13585;50.864;4.406;2022-12-04T01:08:51;16.20;57.80
25732;DHT22;13585;50.864;4.406;2022-12-04T01:11:17;16.20;58.40
25732;DHT22;13585;50.864;4.406;2022-12-04T01:13:44;16.20;57.90
25732;DHT22;13585;50.864;4.406;2022-12-04T01:16:18;16.20;57.80
25732;DHT22;13585;50.864;4.406;2022-12-04T01:18:44;16.20;57.80
25732;DHT22;13585;50.864;4.406;2022-12-04T01:21:11;16.20;57.80
25732;DHT22;13585;50.864;4.406;2022-12-04T01:23:36;16.20;57.80
25732;DHT22;13585;50.864;4.406;2022-12-04T01:26:02;16.20;58.00
25732;DHT22;13585;50.864;4.406;2022-12-04T01:28:28;16.20;57.70
25732;DHT22;13585;50.864;4.406;2022-12-04T01:33:27;16.20;57.70
25732;DHT22;13585;50.864;4.406;2022-12-04T01:35:54;16.20;57.70
25732;DHT22;13585;50.864;4.406;2022-12-04T01:38:20;16.20;57.60
25732;DHT22;13585;50.864;4.406;2022-12-04T01:40:46;16.20;57.60
25732;DHT22;13585;50.864;4.406;2022-12-04T01:43:12;16.20;57.60
25732;DHT22;13585;50.864;4.406;2022-12-04T01:45:43;16.20;57.60
25732;DHT22;13585;50.864;4.406;2022-12-04T01:48:31;16.20;57.60
25732;DHT22;13585;50.864;4.406;2022-12-04T01:51:10;16.20;57.50
25732;DHT22;13585;50.864;4.406;2022-12-04T01:53:39;16.20;57.50
25732;DHT22;13585;50.864;4.406;2022-12-04T01:56:06;16.20;57.50
25732;DHT22;13585;50.864;4.406;2022-12-04T01:58:36;16.20;57.50
25732;DHT22;13585;50.864;4.406;2022-12-04T02:01:04;16.20;57.50
25732;DHT22;13585;50.864;4.406;2022-12-04T02:03:36;16.20;57.50
25732;DHT22;13585;50.864;4.406;2022-12-04T02:06:03;16.20;57.40
25732;DHT22;13585;50.864;4.406;2022-12-04T02:08:29;16.10;57.40
25732;DHT22;13585;50.864;4.406;2022-12-04T02:16:34;16.10;57.40
25732;DHT22;13585;50.864;4.406;2022-12-04T02:19:06;16.10;57.40
25732;DHT22;13585;50.864;4.406;2022-12-04T02:21:42;16.10;57.40
25732;DHT22;13585;50.864;4.406;2022-12-04T02:24:46;16.20;57.50
25732;DHT22;13585;50.864;4.406;2022-12-04T02:32:43;16.10;57.40
25732;DHT22;13585;50.864;4.406;2022-12-04T02:37:53;16.10;57.40
25732;DHT22;13585;50.864;4.406;2022-12-04T02:40:27;16.10;57.30
25732;DHT22;13585;50.864;4.406;2022-12-04T02:43:08;16.10;57.40
25732;DHT22;13585;50.864;4.406;2022-12-04T02:45:46;16.10;58.00
25732;DHT22;13585;50.864;4.406;2022-12-04T02:48:17;16.10;57.40
25732;DHT22;13585;50.864;4.406;2022-12-04T02:50:45;16.10;57.40
25732;DHT22;13585;50.864;4.406;2022-12-04T02:53:16;16.10;57.90
25732;DHT22;13585;50.864;4.406;2022-12-04T02:58:47;16.10;57.20
25732;DHT22;13585;50.864;4.406;2022-12-04T03:01:17;16.10;57.20
25732;DHT22;13585;50.864;4.406;2022-12-04T03:03:53;16.10;57.30
25732;DHT22;13585;50.864;4.406;2022-12-04T03:06:21;16.10;57.20
25732;DHT22;13585;50.864;4.406;2022-12-04T03:08:53;16.10;57.20
25732;DHT22;13585;50.864;4.406;2022-12-04T03:11:20;16.10;57.20
25732;DHT22;13585;50.864;4.406;2022-12-04T03:14:07;16.10;57.20
25732;DHT22;13585;50.864;4.406;2022-12-04T03:16:38;16.10;57.20
25732;DHT22;13585;50.864;4.406;2022-12-04T03:19:36;16.10;57.10
25732;DHT22;13585;50.864;4.406;2022-12-04T03:22:08;16.10;57.20
25732;DHT22;13585;50.864;4.406;2022-12-04T03:24:55;16.00;57.10
25732;DHT22;13585;50.864;4.406;2022-12-04T03:27:41;16.00;57.10
25732;DHT22;13585;50.864;4.406;2022-12-04T03:30:11;16.10;57.10
25732;DHT22;13585;50.864;4.406;2022-12-04T03:32:46;16.00;57.00
25732;DHT22;13585;50.864;4.406;2022-12-04T03:40:20;16.00;57.00
25732;DHT22;13585;50.864;4.406;2022-12-04T03:43:01;16.00;57.00
25732;DHT22;13585;50.864;4.406;2022-12-04T03:48:31;16.00;57.00
25732;DHT22;13585;50.864;4.406;2022-12-04T03:51:21;16.00;57.00
25732;DHT22;13585;50.864;4.406;2022-12-04T03:54:03;16.00;57.00
25732;DHT22;13585;50.864;4.406;2022-12-04T03:56:32;16.00;56.90
25732;DHT22;13585;50.864;4.406;2022-12-04T03:59:05;16.00;56.90
25732;DHT22;13585;50.864;4.406;2022-12-04T04:01:37;16.00;57.00
25732;DHT22;13585;50.864;4.406;2022-12-04T04:04:05;16.00;56.90
25732;DHT22;13585;50.864;4.406;2022-12-04T04:06:40;16.00;56.90
25732;DHT22;13585;50.864;4.406;2022-12-04T04:09:11;16.00;56.90
25732;DHT22;13585;50.864;4.406;2022-12-04T04:12:02;16.00;56.90
25732;DHT22;13585;50.864;4.406;2022-12-04T04:14:36;16.00;56.90
25732;DHT22;13585;50.864;4.406;2022-12-04T04:17:28;16.00;56.80
25732;DHT22;13585;50.864;4.406;2022-12-04T04:20:28;16.00;56.80
25732;DHT22;13585;50.864;4.406;2022-12-04T04:23:14;16.00;56.80
25732;DHT22;13585;50.864;4.406;2022-12-04T04:26:02;16.00;56.80
25732;DHT22;13585;50.864;4.406;2022-12-04T04:28:35;16.00;56.80
25732;DHT22;13585;50.864;4.406;2022-12-04T04:31:17;16.00;56.80
25732;DHT22;13585;50.864;4.406;2022-12-04T04:48:19;16.00;56.80
25732;DHT22;13585;50.864;4.406;2022-12-04T04:50:46;15.90;56.80
25732;DHT22;13585;50.864;4.406;2022-12-04T04:53:17;16.00;56.70
25732;DHT22;13585;50.864;4.406;2022-12-04T04:55:45;15.90;56.80
25732;DHT22;13585;50.864;4.406;2022-12-04T04:58:13;15.90;56.70
25732;DHT22;13585;50.864;4.406;2022-12-04T05:00:40;15.90;56.80
25732;DHT22;13585;50.864;4.406;2022-12-04T05:03:09;16.00;56.80
25732;DHT22;13585;50.864;4.406;2022-12-04T05:05:35;15.90;56.70
25732;DHT22;13585;50.864;4.406;2022-12-04T05:08:01;16.00;56.70
25732;DHT22;13585;50.864;4.406;2022-12-04T05:10:26;16.00;56.70
25732;DHT22;13585;50.864;4.406;2022-12-04T05:12:52;16.00;56.60
25732;DHT22;13585;50.864;4.406;2022-12-04T05:15:18;16.00;56.60
25732;DHT22;13585;50.864;4.406;2022-12-04T05:17:43;16.00;56.60
25732;DHT22;13585;50.864;4.406;2022-12-04T05:20:09;16.00;56.50
25732;DHT22;13585;50.864;4.406;2022-12-04T05:22:35;16.00;56.50
25732;DHT22;13585;50.864;4.406;2022-12-04T05:25:02;16.00;56.50
25732;DHT22;13585;50.864;4.406;2022-12-04T05:27:29;16.10;56.50
25732;DHT22;13585;50.864;4.406;2022-12-04T05:29:58;16.00;56.40
25732;DHT22;13585;50.864;4.406;2022-12-04T05:32:26;16.00;57.00
25732;DHT22;13585;50.864;4.406;2022-12-04T05:34:53;16.00;56.90
25732;DHT22;13585;50.864;4.406;2022-12-04T05:37:20;16.10;56.40
25732;DHT22;13585;50.864;4.406;2022-12-04T05:39:46;16.00;56.40
25732;DHT22;13585;50.864;4.406;2022-12-04T05:42:12;16.00;56.30
25732;DHT22;13585;50.864;4.406;2022-12-04T05:44:38;16.00;56.30
25732;DHT22;13585;50.864;4.406;2022-12-04T05:47:04;16.00;56.30
25732;DHT22;13585;50.864;4.406;2022-12-04T05:49:31;16.10;56.30
25732;DHT22;13585;50.864;4.406;2022-12-04T05:51:56;16.10;56.30
25732;DHT22;13585;50.864;4.406;2022-12-04T05:54:22;16.10;56.20
25732;DHT22;13585;50.864;4.406;2022-12-04T05:56:49;16.00;56.20
25732;DHT22;13585;50.864;4.406;2022-12-04T05:59:16;16.10;56.20
25732;DHT22;13585;50.864;4.406;2022-12-04T06:01:42;16.00;56.10
25732;DHT22;13585;50.864;4.406;2022-12-04T06:04:08;16.00;56.10
25732;DHT22;13585;50.864;4.406;2022-12-04T06:06:34;16.00;56.10
25732;DHT22;13585;50.864;4.406;2022-12-04T06:09:00;16.00;56.10
25732;DHT22;13585;50.864;4.406;2022-12-04T06:11:37;16.10;56.10
25732;DHT22;13585;50.864;4.406;2022-12-04T06:14:05;16.00;56.10
25732;DHT22;13585;50.864;4.406;2022-12-04T06:16:35;16.00;56.10
25732;DHT22;13585;50.864;4.406;2022-12-04T06:19:04;16.00;56.10
25732;DHT22;13585;50.864;4.406;2022-12-04T06:21:32;16.00;56.10
25732;DHT22;13585;50.864;4.406;2022-12-04T06:23:58;16.00;56.00
25732;DHT22;13585;50.864;4.406;2022-12-04T06:26:24;16.00;56.00
25732;DHT22;13585;50.864;4.406;2022-12-04T06:28:52;16.00;56.00
25732;DHT22;13585;50.864;4.406;2022-12-04T06:31:18;16.00;55.90
25732;DHT22;13585;50.864;4.406;2022-12-04T06:33:44;16.00;55.90
25732;DHT22;13585;50.864;4.406;2022-12-04T06:36:15;16.00;56.00
25732;DHT22;13585;50.864;4.406;2022-12-04T06:38:42;16.00;56.00
25732;DHT22;13585;50.864;4.406;2022-12-04T06:41:11;16.00;55.90
25732;DHT22;13585;50.864;4.406;2022-12-04T06:43:37;16.00;55.90
25732;DHT22;13585;50.864;4.406;2022-12-04T06:46:07;15.90;55.90
25732;DHT22;13585;50.864;4.406;2022-12-04T06:48:34;16.00;55.90
25732;DHT22;13585;50.864;4.406;2022-12-04T06:53:33;16.00;55.90
25732;DHT22;13585;50.864;4.406;2022-12-04T06:56:01;16.00;55.90
25732;DHT22;13585;50.864;4.406;2022-12-04T06:58:27;15.90;55.90
25732;DHT22;13585;50.864;4.406;2022-12-04T07:00:53;16.00;56.00
25732;DHT22;13585;50.864;4.406;2022-12-04T07:03:20;15.90;55.90
25732;DHT22;13585;50.864;4.406;2022-12-04T07:05:46;15.90;55.90
25732;DHT22;13585;50.864;4.406;2022-12-04T07:08:12;16.00;55.80
25732;DHT22;13585;50.864;4.406;2022-12-04T07:10:38;15.90;55.70
25732;DHT22;13585;50.864;4.406;2022-12-04T07:13:04;15.90;55.60
25732;DHT22;13585;50.864;4.406;2022-12-04T07:15:32;16.00;55.50
25732;DHT22;13585;50.864;4.406;2022-12-04T07:17:58;15.90;55.40
25732;DHT22;13585;50.864;4.406;2022-12-04T07:20:24;15.90;55.30
25732;DHT22;13585;50.864;4.406;2022-12-04T07:22:49;16.00;55.30
25732;DHT22;13585;50.864;4.406;2022-12-04T07:25:15;15.90;55.20
25732;DHT22;13585;50.864;4.406;2022-12-04T07:27:41;15.90;55.10
25732;DHT22;13585;50.864;4.406;2022-12-04T07:30:08;15.90;55.00
25732;DHT22;13585;50.864;4.406;2022-12-04T07:32:34;15.90;55.00
25732;DHT22;13585;50.864;4.406;2022-12-04T07:35:00;15.90;55.00
25732;DHT22;13585;50.864;4.406;2022-12-04T07:37:25;16.00;55.00
25732;DHT22;13585;50.864;4.406;2022-12-04T07:39:51;15.90;54.90
25732;DHT22;13585;50.864;4.406;2022-12-04T07:42:18;15.90;54.90
25732;DHT22;13585;50.864;4.406;2022-12-04T07:44:44;16.00;55.00
25732;DHT22;13585;50.864;4.406;2022-12-04T07:47:10;15.90;54.90
25732;DHT22;13585;50.864;4.406;2022-12-04T07:49:35;16.00;54.90
25732;DHT22;13585;50.864;4.406;2022-12-04T07:52:04;15.90;55.00
25732;DHT22;13585;50.864;4.406;2022-12-04T07:54:32;15.90;55.00
25732;DHT22;13585;50.864;4.406;2022-12-04T07:56:58;16.00;55.00
25732;DHT22;13585;50.864;4.406;2022-12-04T07:59:23;16.00;55.10
25732;DHT22;13585;50.864;4.406;2022-12-04T08:01:49;16.00;55.10
25732;DHT22;13585;50.864;4.406;2022-12-04T08:04:15;16.00;55.10
25732;DHT22;13585;50.864;4.406;2022-12-04T08:06:40;16.00;55.20
25732;DHT22;13585;50.864;4.406;2022-12-04T08:09:06;16.00;55.20
25732;DHT22;13585;50.864;4.406;2022-12-04T08:11:35;16.00;55.30
25732;DHT22;13585;50.864;4.406;2022-12-04T08:14:05;16.00;55.30
25732;DHT22;13585;50.864;4.406;2022-12-04T08:16:33;16.00;55.40
25732;DHT22;13585;50.864;4.406;2022-12-04T08:19:31;16.00;55.40
25732;DHT22;13585;50.864;4.406;2022-12-04T08:22:06;16.00;55.50
25732;DHT22;13585;50.864;4.406;2022-12-04T08:24:31;16.00;55.50
25732;DHT22;13585;50.864;4.406;2022-12-04T08:26:57;16.00;55.50
25732;DHT22;13585;50.864;4.406;2022-12-04T08:29:22;16.10;55.60
25732;DHT22;13585;50.864;4.406;2022-12-04T08:31:48;16.10;55.60
25732;DHT22;13585;50.864;4.406;2022-12-04T08:34:17;16.00;55.60
25732;DHT22;13585;50.864;4.406;2022-12-04T08:36:42;16.00;55.60
25732;DHT22;13585;50.864;4.406;2022-12-04T08:39:17;16.00;55.60
25732;DHT22;13585;50.864;4.406;2022-12-04T08:41:43;16.10;55.80
25732;DHT22;13585;50.864;4.406;2022-12-04T08:44:08;16.10;55.70
25732;DHT22;13585;50.864;4.406;2022-12-04T08:46:34;16.10;55.70
25732;DHT22;13585;50.864;4.406;2022-12-04T08:49:02;16.10;55.70
25732;DHT22;13585;50.864;4.406;2022-12-04T08:51:30;16.10;55.90
25732;DHT22;13585;50.864;4.406;2022-12-04T08:53:58;16.10;55.80
25732;DHT22;13585;50.864;4.406;2022-12-04T08:56:25;16.10;55.80
25732;DHT22;13585;50.864;4.406;2022-12-04T08:58:51;16.10;55.80
25732;DHT22;13585;50.864;4.406;2022-12-04T09:01:17;16.10;55.90
25732;DHT22;13585;50.864;4.406;2022-12-04T09:03:45;16.10;55.90
25732;DHT22;13585;50.864;4.406;2022-12-04T09:06:13;16.10;55.90
25732;DHT22;13585;50.864;4.406;2022-12-04T09:08:39;16.10;55.90
25732;DHT22;13585;50.864;4.406;2022-12-04T09:13:38;16.20;56.00
25732;DHT22;13585;50.864;4.406;2022-12-04T09:16:07;16.10;55.90
25732;DHT22;13585;50.864;4.406;2022-12-04T09:18:34;16.10;55.90
25732;DHT22;13585;50.864;4.406;2022-12-04T09:21:04;16.10;55.90
25732;DHT22;13585;50.864;4.406;2022-12-04T09:23:29;16.20;56.00
25732;DHT22;13585;50.864;4.406;2022-12-04T09:26:13;16.10;56.00
25732;DHT22;13585;50.864;4.406;2022-12-04T09:32:00;16.10;56.00
25732;DHT22;13585;50.864;4.406;2022-12-04T09:34:32;16.20;56.10
25732;DHT22;13585;50.864;4.406;2022-12-04T09:47:22;16.20;56.20
25732;DHT22;13585;50.864;4.406;2022-12-04T09:53:09;16.20;56.20
25732;DHT22;13585;50.864;4.406;2022-12-04T09:56:29;16.20;56.40
25732;DHT22;13585;50.864;4.406;2022-12-04T09:59:18;16.20;56.30
25732;DHT22;13585;50.864;4.406;2022-12-04T10:08:38;16.20;56.50
25732;DHT22;13585;50.864;4.406;2022-12-04T10:11:29;16.20;56.60
25732;DHT22;13585;50.864;4.406;2022-12-04T10:14:17;16.20;56.70
25732;DHT22;13585;50.864;4.406;2022-12-04T10:16:52;16.20;56.70
25732;DHT22;13585;50.864;4.406;2022-12-04T10:25:02;16.20;56.80
25732;DHT22;13585;50.864;4.406;2022-12-04T10:27:47;16.30;56.90
25732;DHT22;13585;50.864;4.406;2022-12-04T10:30:20;16.20;56.80
25732;DHT22;13585;50.864;4.406;2022-12-04T10:33:16;16.30;56.90
25732;DHT22;13585;50.864;4.406;2022-12-04T10:35:49;16.30;56.90
25732;DHT22;13585;50.864;4.406;2022-12-04T10:40:53;16.20;56.80
25732;DHT22;13585;50.864;4.406;2022-12-04T10:43:47;16.20;56.80
25732;DHT22;13585;50.864;4.406;2022-12-04T10:46:34;16.30;56.90
25732;DHT22;13585;50.864;4.406;2022-12-04T10:52:31;16.30;56.90
25732;DHT22;13585;50.864;4.406;2022-12-04T10:55:31;16.30;56.90
25732;DHT22;13585;50.864;4.406;2022-12-04T11:01:31;16.30;56.90
25732;DHT22;13585;50.864;4.406;2022-12-04T11:04:38;16.30;57.00
25732;DHT22;13585;50.864;4.406;2022-12-04T11:07:42;16.40;56.90
25732;DHT22;13585;50.864;4.406;2022-12-04T11:11:00;16.30;57.00
25732;DHT22;13585;50.864;4.406;2022-12-04T11:13:45;16.30;57.00
25732;DHT22;13585;50.864;4.406;2022-12-04T11:16:59;16.40;57.00
25732;DHT22;13585;50.864;4.406;2022-12-04T11:19:46;16.30;57.00
25732;DHT22;13585;50.864;4.406;2022-12-04T11:24:57;16.30;57.00
25732;DHT22;13585;50.864;4.406;2022-12-04T11:28:00;16.30;57.00
25732;DHT22;13585;50.864;4.406;2022-12-04T11:34:21;16.30;57.00
25732;DHT22;13585;50.864;4.406;2022-12-04T11:37:30;16.40;57.10
25732;DHT22;13585;50.864;4.406;2022-12-04T11:39:57;16.30;57.10
25732;DHT22;13585;50.864;4.406;2022-12-04T11:42:36;16.40;57.10
25732;DHT22;13585;50.864;4.406;2022-12-04T11:45:19;16.40;57.10
25732;DHT22;13585;50.864;4.406;2022-12-04T11:47:56;16.40;57.10
25732;DHT22;13585;50.864;4.406;2022-12-04T12:08:29;16.40;57.60
25732;DHT22;13585;50.864;4.406;2022-12-04T12:21:04;16.40;58.20
25732;DHT22;13585;50.864;4.406;2022-12-04T12:27:33;16.50;58.90
25732;DHT22;13585;50.864;4.406;2022-12-04T12:35:34;16.50;60.00
25732;DHT22;13585;50.864;4.406;2022-12-04T12:38:27;16.50;60.70
25732;DHT22;13585;50.864;4.406;2022-12-04T12:43:55;16.50;61.80
25732;DHT22;13585;50.864;4.406;2022-12-04T12:46:31;16.60;61.70
25732;DHT22;13585;50.864;4.406;2022-12-04T12:49:12;16.60;62.40
25732;DHT22;13585;50.864;4.406;2022-12-04T12:52:01;16.60;62.90
25732;DHT22;13585;50.864;4.406;2022-12-04T12:59:33;16.70;64.10
25732;DHT22;13585;50.864;4.406;2022-12-04T13:02:24;16.80;64.30
25732;DHT22;13585;50.864;4.406;2022-12-04T13:04:54;16.70;64.60
25732;DHT22;13585;50.864;4.406;2022-12-04T13:07:39;16.70;64.40
25732;DHT22;13585;50.864;4.406;2022-12-04T13:13:01;16.80;64.60
25732;DHT22;13585;50.864;4.406;2022-12-04T13:15:52;16.80;64.50
25732;DHT22;13585;50.864;4.406;2022-12-04T13:18:29;16.80;64.50
25732;DHT22;13585;50.864;4.406;2022-12-04T13:21:00;16.80;64.40
25732;DHT22;13585;50.864;4.406;2022-12-04T13:27:02;16.70;64.40
25732;DHT22;13585;50.864;4.406;2022-12-04T13:41:03;16.70;63.80
25732;DHT22;13585;50.864;4.406;2022-12-04T13:43:51;16.70;63.60
25732;DHT22;13585;50.864;4.406;2022-12-04T13:46:34;16.70;63.50
25732;DHT22;13585;50.864;4.406;2022-12-04T13:49:27;16.80;63.40
25732;DHT22;13585;50.864;4.406;2022-12-04T14:01:49;16.80;63.80
25732;DHT22;13585;50.864;4.406;2022-12-04T14:17:33;16.80;63.80
25732;DHT22;13585;50.864;4.406;2022-12-04T14:20:41;16.90;63.60
25732;DHT22;13585;50.864;4.406;2022-12-04T15:00:39;16.80;62.70
25732;DHT22;13585;50.864;4.406;2022-12-04T15:03:47;16.80;62.50
25732;DHT22;13585;50.864;4.406;2022-12-04T15:06:32;16.80;62.40
25732;DHT22;13585;50.864;4.406;2022-12-04T15:09:33;16.80;62.40
25732;DHT22;13585;50.864;4.406;2022-12-04T15:12:39;16.80;62.30
25732;DHT22;13585;50.864;4.406;2022-12-04T15:59:00;16.80;61.20
25732;DHT22;13585;50.864;4.406;2022-12-04T16:01:26;16.80;61.10
25732;DHT22;13585;50.864;4.406;2022-12-04T16:04:01;16.80;61.00
25732;DHT22;13585;50.864;4.406;2022-12-04T16:06:32;16.80;61.00
25732;DHT22;13585;50.864;4.406;2022-12-04T16:11:42;16.80;60.90
25732;DHT22;13585;50.864;4.406;2022-12-04T16:14:14;16.70;60.80
25732;DHT22;13585;50.864;4.406;2022-12-04T16:16:46;16.70;60.80
25732;DHT22;13585;50.864;4.406;2022-12-04T16:21:43;16.70;60.70
25732;DHT22;13585;50.864;4.406;2022-12-04T16:24:12;16.70;60.70
25732;DHT22;13585;50.864;4.406;2022-12-04T16:26:39;16.70;60.60
25732;DHT22;13585;50.864;4.406;2022-12-04T16:29:05;16.70;60.60
25732;DHT22;13585;50.864;4.406;2022-12-04T16:31:31;16.70;60.60
25732;DHT22;13585;50.864;4.406;2022-12-04T16:33:56;16.70;60.50
25732;DHT22;13585;50.864;4.406;2022-12-04T16:36:28;16.70;60.50
25732;DHT22;13585;50.864;4.406;2022-12-04T16:38:53;16.70;60.50
25732;DHT22;13585;50.864;4.406;2022-12-04T16:41:25;16.70;60.40
25732;DHT22;13585;50.864;4.406;2022-12-04T16:43:56;16.70;60.30
25732;DHT22;13585;50.864;4.406;2022-12-04T16:46:23;16.70;60.30
25732;DHT22;13585;50.864;4.406;2022-12-04T16:48:49;16.70;60.20
25732;DHT22;13585;50.864;4.406;2022-12-04T16:51:23;16.70;60.20
25732;DHT22;13585;50.864;4.406;2022-12-04T16:53:50;16.70;60.20
25732;DHT22;13585;50.864;4.406;2022-12-04T16:56:16;16.60;60.10
25732;DHT22;13585;50.864;4.406;2022-12-04T16:58:43;16.60;60.00
25732;DHT22;13585;50.864;4.406;2022-12-04T17:01:21;16.70;60.10
25732;DHT22;13585;50.864;4.406;2022-12-04T17:03:48;16.70;60.00
25732;DHT22;13585;50.864;4.406;2022-12-04T17:06:14;16.70;60.00
25732;DHT22;13585;50.864;4.406;2022-12-04T17:08:40;16.70;59.90
25732;DHT22;13585;50.864;4.406;2022-12-04T17:11:05;16.70;59.90
25732;DHT22;13585;50.864;4.406;2022-12-04T17:13:31;16.70;59.90
25732;DHT22;13585;50.864;4.406;2022-12-04T17:15:57;16.70;59.80
25732;DHT22;13585;50.864;4.406;2022-12-04T17:18:23;16.60;59.70
25732;DHT22;13585;50.864;4.406;2022-12-04T17:20:49;16.70;59.80
25732;DHT22;13585;50.864;4.406;2022-12-04T17:23:14;16.70;59.70
25732;DHT22;13585;50.864;4.406;2022-12-04T17:25:40;16.70;59.70
25732;DHT22;13585;50.864;4.406;2022-12-04T17:28:15;16.70;59.70
25732;DHT22;13585;50.864;4.406;2022-12-04T17:30:53;16.70;59.70
25732;DHT22;13585;50.864;4.406;2022-12-04T17:33:28;16.70;59.80
25732;DHT22;13585;50.864;4.406;2022-12-04T17:35:54;16.70;59.90
25732;DHT22;13585;50.864;4.406;2022-12-04T17:38:20;16.70;59.90
25732;DHT22;13585;50.864;4.406;2022-12-04T17:40:59;16.70;60.00
25732;DHT22;13585;50.864;4.406;2022-12-04T17:43:27;16.70;60.10
25732;DHT22;13585;50.864;4.406;2022-12-04T17:45:54;16.70;60.10
25732;DHT22;13585;50.864;4.406;2022-12-04T17:48:23;16.70;60.10
25732;DHT22;13585;50.864;4.406;2022-12-04T17:50:49;16.70;60.20
25732;DHT22;13585;50.864;4.406;2022-12-04T17:53:21;16.70;60.20
25732;DHT22;13585;50.864;4.406;2022-12-04T17:55:46;16.70;60.20
25732;DHT22;13585;50.864;4.406;2022-12-04T17:58:24;16.70;60.20
25732;DHT22;13585;50.864;4.406;2022-12-04T18:00:50;16.70;60.30
25732;DHT22;13585;50.864;4.406;2022-12-04T18:03:24;16.70;60.20
25732;DHT22;13585;50.864;4.406;2022-12-04T18:05:49;16.70;60.40
25732;DHT22;13585;50.864;4.406;2022-12-04T18:08:15;16.70;60.60
25732;DHT22;13585;50.864;4.406;2022-12-04T18:10:41;16.70;60.80
25732;DHT22;13585;50.864;4.406;2022-12-04T18:13:07;16.70;60.90
25732;DHT22;13585;50.864;4.406;2022-12-04T18:15:33;16.70;61.00
25732;DHT22;13585;50.864;4.406;2022-12-04T18:17:59;16.80;61.10
25732;DHT22;13585;50.864;4.406;2022-12-04T18:20:25;16.70;61.00
25732;DHT22;13585;50.864;4.406;2022-12-04T18:22:50;16.70;61.00
25732;DHT22;13585;50.864;4.406;2022-12-04T18:25:16;16.80;61.10
25732;DHT22;13585;50.864;4.406;2022-12-04T18:27:41;16.70;61.10
25732;DHT22;13585;50.864;4.406;2022-12-04T18:30:08;16.70;61.10
25732;DHT22;13585;50.864;4.406;2022-12-04T18:32:33;16.70;61.10
25732;DHT22;13585;50.864;4.406;2022-12-04T18:34:59;16.70;61.00
25732;DHT22;13585;50.864;4.406;2022-12-04T18:37:25;16.70;61.30
25732;DHT22;13585;50.864;4.406;2022-12-04T18:39:50;16.70;61.30
25732;DHT22;13585;50.864;4.406;2022-12-04T18:42:16;16.70;61.30
25732;DHT22;13585;50.864;4.406;2022-12-04T18:44:42;16.70;61.30
25732;DHT22;13585;50.864;4.406;2022-12-04T18:47:07;16.70;61.30
25732;DHT22;13585;50.864;4.406;2022-12-04T18:49:33;16.70;61.30
25732;DHT22;13585;50.864;4.406;2022-12-04T18:51:59;16.70;61.40
25732;DHT22;13585;50.864;4.406;2022-12-04T18:54:24;16.70;61.30
25732;DHT22;13585;50.864;4.406;2022-12-04T18:56:50;16.70;61.50
25732;DHT22;13585;50.864;4.406;2022-12-04T18:59:18;16.70;61.50
25732;DHT22;13585;50.864;4.406;2022-12-04T19:01:45;16.70;61.60
25732;DHT22;13585;50.864;4.406;2022-12-04T19:04:12;16.60;61.50
25732;DHT22;13585;50.864;4.406;2022-12-04T19:06:40;16.70;61.40
25732;DHT22;13585;50.864;4.406;2022-12-04T19:09:09;16.70;61.50
25732;DHT22;13585;50.864;4.406;2022-12-04T19:11:35;16.70;61.50
25732;DHT22;13585;50.864;4.406;2022-12-04T19:14:01;16.70;61.50
25732;DHT22;13585;50.864;4.406;2022-12-04T19:16:28;16.70;61.60
25732;DHT22;13585;50.864;4.406;2022-12-04T19:18:55;16.70;61.50
25732;DHT22;13585;50.864;4.406;2022-12-04T19:21:20;16.70;61.50
25732;DHT22;13585;50.864;4.406;2022-12-04T19:23:57;16.70;61.60
25732;DHT22;13585;50.864;4.406;2022-12-04T19:26:29;16.60;61.50
25732;DHT22;13585;50.864;4.406;2022-12-04T19:28:56;16.70;61.50
25732;DHT22;13585;50.864;4.406;2022-12-04T19:31:25;16.60;61.40
25732;DHT22;13585;50.864;4.406;2022-12-04T19:33:53;16.70;61.40
25732;DHT22;13585;50.864;4.406;2022-12-04T19:36:20;16.60;61.30
25732;DHT22;13585;50.864;4.406;2022-12-04T19:49:58;16.60;61.00
25732;DHT22;13585;50.864;4.406;2022-12-04T19:52:24;16.70;61.10
25732;DHT22;13585;50.864;4.406;2022-12-04T19:54:49;16.60;61.00
25732;DHT22;13585;50.864;4.406;2022-12-04T19:57:15;16.70;61.00
25732;DHT22;13585;50.864;4.406;2022-12-04T19:59:41;16.60;61.00
25732;DHT22;13585;50.864;4.406;2022-12-04T20:02:09;16.60;60.90
25732;DHT22;13585;50.864;4.406;2022-12-04T20:04:37;16.60;61.00
25732;DHT22;13585;50.864;4.406;2022-12-04T20:07:03;16.60;61.70
25732;DHT22;13585;50.864;4.406;2022-12-04T20:09:29;16.60;60.90
25732;DHT22;13585;50.864;4.406;2022-12-04T20:11:54;16.50;60.90
25732;DHT22;13585;50.864;4.406;2022-12-04T20:14:20;16.50;60.80
25732;DHT22;13585;50.864;4.406;2022-12-04T20:16:46;16.50;60.80
25732;DHT22;13585;50.864;4.406;2022-12-04T20:19:14;16.50;60.80
25732;DHT22;13585;50.864;4.406;2022-12-04T20:21:40;16.50;60.80
25732;DHT22;13585;50.864;4.406;2022-12-04T20:24:06;16.50;60.70
25732;DHT22;13585;50.864;4.406;2022-12-04T20:26:34;16.50;60.70
25732;DHT22;13585;50.864;4.406;2022-12-04T20:29:02;16.50;60.70
25732;DHT22;13585;50.864;4.406;2022-12-04T20:31:35;16.50;60.70